Time;durP1;ratioP1;P1;durP2;ratioP2;P2;SDS_P1;SDS_P2;PMS_P1;PMS_P2;Temp;Humidity;BMP_temperature;BMP_pressure;BME280_temperature;BME280_humidity;BME280_pressure;Samples;Min_cycle;Max_cycle;Signal;HPM_P1;HPM_P2
2022/09/18 00:02:01;;;;;;;10.17;2.13;;;11.80;99.90;;;;;;5089926;28;20397;-64
2022/09/18 00:04:27;;;;;;;15.05;2.78;;;11.80;99.90;;;;;;5087339;28;20385;-64
2022/09/18 00:06:53;;;;;;;11.27;2.38;;;11.80;99.90;;;;;;5087184;28;20398;-64
2022/09/18 00:09:19;;;;;;;5.88;1.90;;;11.80;99.90;;;;;;5088105;28;20421;-64
2022/09/18 00:11:46;;;;;;;14.70;2.72;;;11.80;99.90;;;;;;5087850;28;20390;-64
2022/09/18 00:14:15;;;;;;;12.00;2.60;;;11.70;99.90;;;;;;5090156;28;20386;-65
2022/09/18 00:16:42;;;;;;;9.60;2.70;;;11.70;99.90;;;;;;5089477;28;20772;-64
2022/09/18 00:19:08;;;;;;;9.27;2.30;;;11.60;99.90;;;;;;5088863;28;20794;-64
2022/09/18 00:21:36;;;;;;;9.50;2.33;;;11.60;99.90;;;;;;5087419;28;20398;-64
2022/09/18 00:24:03;;;;;;;9.25;2.42;;;11.60;99.90;;;;;;5087866;28;20382;-65
2022/09/18 00:26:28;;;;;;;9.50;2.30;;;11.60;99.90;;;;;;5089168;28;20382;-65
2022/09/18 00:28:56;;;;;;;11.73;2.13;;;11.60;99.90;;;;;;5090103;28;20667;-66
2022/09/18 00:31:26;;;;;;;12.65;2.65;;;11.60;99.90;;;;;;5087013;28;20390;-65
2022/09/18 00:33:52;;;;;;;10.25;2.55;;;11.60;99.90;;;;;;5087982;28;20378;-65
2022/09/18 00:36:19;;;;;;;11.18;2.40;;;11.60;99.90;;;;;;5087404;28;20382;-65
2022/09/18 00:38:46;;;;;;;11.95;2.65;;;11.60;99.90;;;;;;5084967;28;20765;-65
2022/09/18 00:41:22;;;;;;;9.52;2.00;;;11.60;99.90;;;;;;5085501;28;20396;-66
2022/09/18 00:43:48;;;;;;;8.35;2.10;;;11.60;99.90;;;;;;5084016;28;20480;-65
2022/09/18 00:46:34;;;;;;;12.68;2.80;;;11.60;99.90;;;;;;5084662;28;20513;-65
2022/09/18 00:49:17;;;;;;;10.23;2.20;;;11.60;99.90;;;;;;5087803;28;20408;-65
2022/09/18 00:51:44;;;;;;;14.00;2.70;;;11.60;99.90;;;;;;5088219;28;20378;-66
2022/09/18 00:54:24;;;;;;;10.68;2.90;;;11.60;99.90;;;;;;5090173;28;20374;-65
2022/09/18 00:56:52;;;;;;;12.55;2.40;;;11.60;99.90;;;;;;5088867;28;20619;-65
2022/09/18 00:59:25;;;;;;;6.73;2.00;;;11.60;99.90;;;;;;5090385;28;20651;-66
2022/09/18 01:01:51;;;;;;;8.05;2.30;;;11.60;99.90;;;;;;5091983;28;20398;-65
2022/09/18 01:04:17;;;;;;;10.68;2.22;;;11.60;99.90;;;;;;5089666;28;20624;-64
2022/09/18 01:07:09;;;;;;;10.87;2.30;;;11.60;99.90;;;;;;5090949;28;20731;-65
2022/09/18 01:09:44;;;;;;;12.10;2.55;;;11.60;99.90;;;;;;5080560;28;20405;-65
2022/09/18 01:12:44;;;;;;;12.00;2.75;;;11.60;99.90;;;;;;5094918;28;20374;-65
2022/09/18 01:15:25;;;;;;;9.90;2.20;;;11.60;99.90;;;;;;5076255;28;20404;-65
2022/09/18 01:18:34;;;;;;;9.45;2.00;;;11.60;99.90;;;;;;5094024;28;20386;-65
2022/09/18 01:21:00;;;;;;;7.00;2.07;;;11.60;99.90;;;;;;5064240;28;20445;-65
2022/09/18 01:23:55;;;;;;;9.70;2.27;;;11.60;99.90;;;;;;5093560;28;20385;-65
2022/09/18 01:26:34;;;;;;;8.82;1.90;;;11.60;99.90;;;;;;5095017;28;20377;-65
2022/09/18 01:29:17;;;;;;;11.30;2.38;;;11.60;99.90;;;;;;5093338;28;20410;-65
2022/09/18 01:32:05;;;;;;;8.75;2.70;;;11.60;99.90;;;;;;5095775;28;20478;-65
2022/09/18 01:34:53;;;;;;;8.50;2.67;;;11.60;99.90;;;;;;5093482;28;20382;-65
2022/09/18 01:37:38;;;;;;;8.68;2.25;;;11.60;99.90;;;;;;5093794;28;20605;-65
2022/09/18 01:40:29;;;;;;;6.53;1.93;;;11.60;99.90;;;;;;5092953;28;20803;-65
2022/09/18 01:42:58;;;;;;;11.50;2.05;;;11.60;99.90;;;;;;5094447;28;20794;-65
2022/09/18 01:45:29;;;;;;;9.90;2.45;;;11.60;99.90;;;;;;5093804;28;20541;-65
2022/09/18 01:48:02;;;;;;;10.43;2.45;;;11.60;99.90;;;;;;5094614;28;20897;-65
2022/09/18 01:50:31;;;;;;;12.68;2.65;;;11.60;99.90;;;;;;5091037;28;20382;-65
2022/09/18 01:53:05;;;;;;;9.38;2.40;;;11.60;99.90;;;;;;5092620;28;20758;-65
2022/09/18 01:55:32;;;;;;;11.15;3.40;;;11.50;99.90;;;;;;5093546;28;20366;-65
2022/09/18 01:58:05;;;;;;;11.80;2.25;;;11.50;99.90;;;;;;5093648;28;20383;-65
2022/09/18 02:00:31;;;;;;;6.85;2.67;;;11.50;99.90;;;;;;5091585;28;20385;-65
2022/09/18 02:03:06;;;;;;;10.02;2.55;;;11.40;99.90;;;;;;5090567;28;20378;-65
2022/09/18 02:05:36;;;;;;;11.20;2.55;;;11.40;99.90;;;;;;5090430;28;20478;-65
2022/09/18 02:08:21;;;;;;;9.43;2.60;;;11.40;99.90;;;;;;5092112;28;20370;-65
2022/09/18 02:11:08;;;;;;;14.43;3.13;;;11.40;99.90;;;;;;5088765;28;20382;-65
2022/09/18 02:13:38;;;;;;;12.37;2.70;;;11.40;99.90;;;;;;5090823;28;20714;-65
2022/09/18 02:16:09;;;;;;;10.07;2.33;;;11.40;99.90;;;;;;5093016;28;20389;-66
2022/09/18 02:18:39;;;;;;;10.13;2.55;;;11.40;99.90;;;;;;5092442;28;20374;-65
2022/09/18 02:21:12;;;;;;;13.25;2.63;;;11.30;99.90;;;;;;5093936;28;20390;-66
2022/09/18 02:23:39;;;;;;;10.60;2.45;;;11.30;99.90;;;;;;5093233;28;20386;-66
2022/09/18 02:26:08;;;;;;;9.85;2.20;;;11.20;99.90;;;;;;5093317;28;20389;-65
2022/09/18 02:28:35;;;;;;;12.77;2.75;;;11.20;99.90;;;;;;5093351;28;20466;-66
2022/09/18 02:31:01;;;;;;;9.35;2.15;;;11.10;99.90;;;;;;5094810;28;20381;-66
2022/09/18 02:33:32;;;;;;;10.68;2.20;;;11.10;99.90;;;;;;5093696;28;20469;-65
2022/09/18 02:36:07;;;;;;;9.70;2.63;;;11.10;99.90;;;;;;5092904;28;20845;-65
2022/09/18 02:38:54;;;;;;;14.40;2.80;;;11.10;99.90;;;;;;5091899;28;20389;-65
2022/09/18 02:41:41;;;;;;;8.13;2.20;;;11.10;99.90;;;;;;5091586;28;20444;-67
2022/09/18 02:44:28;;;;;;;13.27;2.83;;;11.00;99.90;;;;;;5089986;28;20394;-66
2022/09/18 02:47:13;;;;;;;13.52;2.55;;;11.10;99.90;;;;;;5091176;28;20704;-65
2022/09/18 02:49:50;;;;;;;10.05;2.25;;;11.10;99.90;;;;;;5091659;28;20455;-66
2022/09/18 02:52:50;;;;;;;12.20;2.80;;;11.10;99.90;;;;;;5091602;28;20405;-65
2022/09/18 02:55:30;;;;;;;11.63;2.50;;;11.10;99.90;;;;;;5079025;28;20674;-66
2022/09/18 02:58:00;;;;;;;11.93;2.53;;;11.10;99.90;;;;;;5091796;28;20751;-65
2022/09/18 03:00:28;;;;;;;10.20;2.65;;;11.10;99.90;;;;;;5092816;28;20378;-66
2022/09/18 03:02:58;;;;;;;10.07;2.28;;;11.10;99.90;;;;;;5092108;28;20821;-66
2022/09/18 03:05:24;;;;;;;13.35;2.65;;;11.10;99.90;;;;;;5090484;28;20813;-64
2022/09/18 03:07:50;;;;;;;11.57;2.60;;;11.10;99.90;;;;;;5091006;28;20382;-64
2022/09/18 03:10:18;;;;;;;11.50;2.70;;;11.00;99.90;;;;;;5091254;28;20421;-66
2022/09/18 03:12:43;;;;;;;11.55;2.67;;;11.00;99.90;;;;;;5092998;28;20753;-64
2022/09/18 03:15:10;;;;;;;9.73;2.33;;;11.00;99.90;;;;;;5091765;28;20413;-65
2022/09/18 03:17:35;;;;;;;8.13;2.10;;;11.00;99.90;;;;;;5091523;28;20419;-65
2022/09/18 03:20:03;;;;;;;9.60;2.37;;;11.00;99.90;;;;;;5093315;28;20465;-65
2022/09/18 03:22:28;;;;;;;8.00;2.05;;;10.90;99.90;;;;;;5092499;28;20377;-65
2022/09/18 03:24:54;;;;;;;9.80;2.40;;;10.90;99.90;;;;;;5090662;28;20443;-65
2022/09/18 03:27:19;;;;;;;7.33;1.77;;;10.90;99.90;;;;;;5090740;28;20389;-64
2022/09/18 03:29:45;;;;;;;10.55;2.70;;;10.90;99.90;;;;;;5093319;28;20457;-64
2022/09/18 03:32:11;;;;;;;6.57;2.37;;;11.00;99.90;;;;;;5095002;28;20379;-64
2022/09/18 03:34:37;;;;;;;8.00;2.43;;;10.90;99.90;;;;;;5093118;28;20745;-65
2022/09/18 03:37:03;;;;;;;8.65;2.20;;;10.90;99.90;;;;;;5091145;28;20439;-65
2022/09/18 03:39:28;;;;;;;10.57;1.75;;;10.90;99.90;;;;;;5091518;28;20650;-65
2022/09/18 03:41:54;;;;;;;6.50;1.73;;;10.80;99.90;;;;;;5092830;28;20421;-65
2022/09/18 03:44:19;;;;;;;6.70;1.53;;;10.80;99.90;;;;;;5092251;28;20401;-65
2022/09/18 03:46:45;;;;;;;5.10;1.63;;;10.80;99.90;;;;;;5092080;28;20378;-65
2022/09/18 03:49:11;;;;;;;5.63;1.60;;;10.80;99.90;;;;;;5090218;28;20405;-65
2022/09/18 03:51:36;;;;;;;8.33;2.07;;;10.80;99.90;;;;;;5091884;28;20413;-65
2022/09/18 03:54:02;;;;;;;9.80;1.87;;;10.80;99.90;;;;;;5088877;28;20436;-65
2022/09/18 03:56:27;;;;;;;6.45;1.95;;;10.80;99.90;;;;;;5090838;28;20382;-65
2022/09/18 03:58:53;;;;;;;7.53;1.60;;;10.80;99.90;;;;;;5090779;28;20884;-65
2022/09/18 04:01:19;;;;;;;8.23;2.03;;;10.80;99.90;;;;;;5089686;28;20386;-65
2022/09/18 04:03:44;;;;;;;10.87;2.27;;;10.80;99.90;;;;;;5091447;28;20394;-65
2022/09/18 04:06:10;;;;;;;12.27;2.45;;;10.70;99.90;;;;;;5090519;28;20885;-65
2022/09/18 04:08:37;;;;;;;8.27;1.43;;;10.70;99.90;;;;;;5090249;28;20471;-65
2022/09/18 04:11:04;;;;;;;9.18;2.15;;;10.70;99.90;;;;;;5091699;28;20689;-66
2022/09/18 04:13:31;;;;;;;11.70;2.15;;;10.70;99.90;;;;;;5092247;28;20394;-65
2022/09/18 04:15:57;;;;;;;11.68;2.50;;;10.70;99.90;;;;;;5091041;28;20381;-65
2022/09/18 04:18:23;;;;;;;4.93;1.60;;;10.70;99.90;;;;;;5091213;28;20378;-65
2022/09/18 04:20:50;;;;;;;9.40;2.00;;;10.70;99.90;;;;;;5091473;28;20432;-65
2022/09/18 04:23:16;;;;;;;12.27;2.53;;;10.70;99.90;;;;;;5090868;28;20513;-65
2022/09/18 04:25:42;;;;;;;9.73;2.20;;;10.70;99.90;;;;;;5088695;28;20374;-65
2022/09/18 04:28:09;;;;;;;9.07;1.98;;;10.70;99.90;;;;;;5088251;28;20381;-65
2022/09/18 04:30:35;;;;;;;9.05;2.20;;;10.60;99.90;;;;;;5088602;28;20370;-65
2022/09/18 04:33:01;;;;;;;8.77;1.95;;;10.70;99.90;;;;;;5088360;28;20385;-64
2022/09/18 04:35:27;;;;;;;8.30;1.60;;;10.70;99.90;;;;;;5088008;28;20378;-65
2022/09/18 04:37:52;;;;;;;10.33;2.57;;;10.60;99.90;;;;;;5088015;28;20384;-65
2022/09/18 04:40:18;;;;;;;6.93;1.90;;;10.60;99.90;;;;;;5087878;28;20417;-65
2022/09/18 04:42:43;;;;;;;8.85;1.80;;;10.50;99.90;;;;;;5092147;28;20401;-64
2022/09/18 04:45:09;;;;;;;8.83;2.20;;;10.40;99.90;;;;;;5091429;28;20467;-64
2022/09/18 04:47:35;;;;;;;8.93;1.92;;;10.40;99.90;;;;;;5094956;28;20789;-64
2022/09/18 04:50:00;;;;;;;5.30;1.50;;;10.40;99.90;;;;;;5091340;28;20437;-64
2022/09/18 04:52:26;;;;;;;6.03;1.60;;;10.30;99.90;;;;;;5092939;28;20390;-64
2022/09/18 04:54:52;;;;;;;7.18;2.05;;;10.40;99.90;;;;;;5094736;28;20382;-65
2022/09/18 04:57:17;;;;;;;6.23;1.70;;;10.30;99.90;;;;;;5092485;28;20366;-65
2022/09/18 04:59:43;;;;;;;7.00;1.45;;;10.30;99.90;;;;;;5090972;28;20394;-65
2022/09/18 05:02:09;;;;;;;7.40;1.60;;;10.30;99.90;;;;;;5088160;28;20638;-65
2022/09/18 05:04:34;;;;;;;5.17;1.47;;;10.30;99.90;;;;;;5088310;28;20586;-65
2022/09/18 05:07:00;;;;;;;8.50;1.85;;;10.30;99.90;;;;;;5089195;28;20442;-65
2022/09/18 05:09:25;;;;;;;7.65;1.58;;;10.30;99.90;;;;;;5090237;28;20401;-65
2022/09/18 05:11:53;;;;;;;5.07;1.40;;;10.30;99.90;;;;;;5090299;28;20463;-65
2022/09/18 05:14:19;;;;;;;9.05;1.85;;;10.30;99.90;;;;;;5091535;28;20393;-65
2022/09/18 05:16:44;;;;;;;6.15;1.60;;;10.30;99.90;;;;;;5090805;28;20386;-65
2022/09/18 05:19:10;;;;;;;9.98;2.10;;;10.40;99.90;;;;;;5094494;28;20414;-65
2022/09/18 05:21:35;;;;;;;6.67;1.50;;;10.40;99.90;;;;;;5094223;28;20390;-65
2022/09/18 05:24:01;;;;;;;7.17;1.90;;;10.30;99.90;;;;;;5094169;28;20385;-65
2022/09/18 05:26:30;;;;;;;6.07;1.83;;;10.30;99.90;;;;;;5094951;28;20381;-65
2022/09/18 05:28:55;;;;;;;6.90;2.13;;;10.40;99.90;;;;;;5094246;28;20414;-65
2022/09/18 05:31:21;;;;;;;10.17;2.03;;;10.40;99.90;;;;;;5094220;28;20373;-65
2022/09/18 05:33:47;;;;;;;8.13;2.27;;;10.40;99.90;;;;;;5091884;28;20400;-65
2022/09/18 05:36:12;;;;;;;10.40;2.03;;;10.40;99.90;;;;;;5091313;28;20424;-65
2022/09/18 05:38:38;;;;;;;10.95;2.45;;;10.40;99.90;;;;;;5092709;28;20788;-65
2022/09/18 05:41:04;;;;;;;10.90;2.70;;;10.30;99.90;;;;;;5091266;28;20386;-65
2022/09/18 05:43:29;;;;;;;8.87;2.03;;;10.20;99.90;;;;;;5090450;28;20840;-65
2022/09/18 05:45:55;;;;;;;10.20;2.50;;;10.20;99.90;;;;;;5090172;28;20435;-65
2022/09/18 05:48:21;;;;;;;9.67;2.30;;;10.10;99.90;;;;;;5090434;28;20381;-65
2022/09/18 05:50:47;;;;;;;9.90;2.20;;;10.10;99.90;;;;;;5089681;28;20373;-67
2022/09/18 05:53:18;;;;;;;10.03;1.63;;;10.00;99.90;;;;;;5086117;28;20413;-65
2022/09/18 05:55:45;;;;;;;10.20;2.53;;;10.00;99.90;;;;;;5084954;28;20381;-65
2022/09/18 05:58:13;;;;;;;7.05;2.25;;;10.00;99.90;;;;;;5085812;28;20402;-65
2022/09/18 06:00:38;;;;;;;8.10;2.17;;;10.10;99.90;;;;;;5086312;28;20381;-65
2022/09/18 06:03:06;;;;;;;8.25;2.28;;;10.10;99.90;;;;;;5088988;28;20586;-65
2022/09/18 06:05:34;;;;;;;10.43;1.93;;;10.10;99.90;;;;;;5085567;28;20578;-65
2022/09/18 06:08:01;;;;;;;8.65;2.35;;;10.10;99.90;;;;;;5087557;28;20374;-65
2022/09/18 06:10:28;;;;;;;12.88;2.30;;;10.20;99.90;;;;;;5088721;28;20737;-65
2022/09/18 06:13:01;;;;;;;10.88;2.08;;;10.20;99.90;;;;;;5089611;28;20579;-65
2022/09/18 06:15:27;;;;;;;9.85;1.98;;;10.20;99.90;;;;;;5089138;28;20882;-65
2022/09/18 06:17:52;;;;;;;12.88;2.05;;;10.20;99.90;;;;;;5086796;28;20382;-65
2022/09/18 06:20:18;;;;;;;8.80;2.10;;;10.20;99.90;;;;;;5086358;28;20394;-65
2022/09/18 06:22:45;;;;;;;7.60;1.95;;;10.20;99.90;;;;;;5086363;28;21072;-65
2022/09/18 06:25:10;;;;;;;8.90;2.35;;;10.20;99.90;;;;;;5087144;28;20435;-65
2022/09/18 06:27:36;;;;;;;9.37;2.17;;;10.20;99.90;;;;;;5087982;28;20386;-65
2022/09/18 06:30:02;;;;;;;10.45;2.35;;;10.30;99.90;;;;;;5087298;28;20421;-65
2022/09/18 06:32:28;;;;;;;8.45;1.92;;;10.30;99.90;;;;;;5090426;28;20377;-65
2022/09/18 06:34:53;;;;;;;7.40;2.10;;;10.30;99.90;;;;;;5088834;28;20631;-65
2022/09/18 06:37:19;;;;;;;8.63;1.60;;;10.20;99.90;;;;;;5089478;28;20369;-65
2022/09/18 06:39:44;;;;;;;8.03;2.00;;;10.20;99.90;;;;;;5089129;28;20386;-65
2022/09/18 06:42:10;;;;;;;10.53;2.10;;;10.20;99.90;;;;;;5089468;28;20390;-65
2022/09/18 06:44:36;;;;;;;12.50;1.85;;;10.30;99.90;;;;;;5088416;28;20432;-65
2022/09/18 06:47:02;;;;;;;9.32;1.77;;;10.30;99.90;;;;;;5085662;28;20558;-65
2022/09/18 06:49:28;;;;;;;7.13;1.90;;;10.30;99.90;;;;;;5083226;28;20405;-65
2022/09/18 06:51:54;;;;;;;7.73;2.13;;;10.20;99.90;;;;;;5083551;28;20436;-65
2022/09/18 06:54:20;;;;;;;9.77;2.38;;;10.20;99.90;;;;;;5085857;28;20370;-65
2022/09/18 06:56:46;;;;;;;7.70;1.70;;;10.20;99.90;;;;;;5084068;28;20401;-65
2022/09/18 06:59:12;;;;;;;4.88;1.60;;;10.20;99.90;;;;;;5085180;28;20428;-65
2022/09/18 07:01:38;;;;;;;9.52;2.42;;;10.30;99.90;;;;;;5086989;28;20688;-65
2022/09/18 07:04:03;;;;;;;9.25;2.40;;;10.10;99.90;;;;;;5087751;28;20409;-65
2022/09/18 07:06:29;;;;;;;9.73;2.50;;;10.10;99.90;;;;;;5087741;28;20402;-65
2022/09/18 07:08:55;;;;;;;6.27;1.80;;;10.20;99.90;;;;;;5087794;28;20430;-65
2022/09/18 07:11:20;;;;;;;8.68;2.10;;;10.20;99.90;;;;;;5088637;28;20886;-65
2022/09/18 07:13:46;;;;;;;9.25;2.08;;;10.30;99.90;;;;;;5083661;28;20394;-67
2022/09/18 07:16:12;;;;;;;6.53;1.98;;;10.50;99.90;;;;;;5082929;28;20385;-65
2022/09/18 07:18:38;;;;;;;9.15;2.05;;;10.50;99.90;;;;;;5080839;28;20471;-65
2022/09/18 07:21:04;;;;;;;11.23;1.88;;;10.50;99.90;;;;;;5082754;28;20635;-65
2022/09/18 07:23:31;;;;;;;5.33;1.93;;;10.50;99.90;;;;;;5083324;28;20410;-65
2022/09/18 07:26:01;;;;;;;8.55;2.17;;;10.60;99.90;;;;;;5084468;28;20389;-65
2022/09/18 07:28:27;;;;;;;10.47;2.10;;;10.50;99.90;;;;;;5083159;28;20428;-65
2022/09/18 07:30:53;;;;;;;11.82;2.60;;;10.50;99.90;;;;;;5081928;28;20490;-65
2022/09/18 07:33:19;;;;;;;10.90;2.00;;;10.50;99.90;;;;;;5083605;28;20382;-65
2022/09/18 07:35:46;;;;;;;8.13;2.70;;;10.50;99.90;;;;;;5083121;28;20732;-65
2022/09/18 07:38:11;;;;;;;12.05;2.22;;;10.60;99.90;;;;;;5083529;28;20406;-65
2022/09/18 07:40:37;;;;;;;9.73;2.27;;;10.60;99.90;;;;;;5083559;28;20414;-65
2022/09/18 07:43:08;;;;;;;8.93;2.37;;;10.70;99.90;;;;;;5080054;28;20485;-65
2022/09/18 07:45:34;;;;;;;10.13;2.63;;;10.70;99.90;;;;;;5081636;28;20382;-65
2022/09/18 07:48:01;;;;;;;8.90;2.05;;;10.70;99.90;;;;;;5082300;28;20392;-65
2022/09/18 07:50:27;;;;;;;7.17;2.20;;;10.70;99.90;;;;;;5079585;28;20401;-65
2022/09/18 07:52:55;;;;;;;9.70;2.27;;;10.60;99.90;;;;;;5081219;28;20389;-65
2022/09/18 07:55:22;;;;;;;10.02;2.20;;;10.70;99.90;;;;;;5082618;28;20393;-65
2022/09/18 07:57:54;;;;;;;13.68;2.85;;;10.80;99.90;;;;;;5084237;28;20469;-66
2022/09/18 08:00:19;;;;;;;7.60;2.10;;;10.80;99.90;;;;;;5082302;28;20658;-65
2022/09/18 08:02:45;;;;;;;8.13;2.20;;;10.90;99.90;;;;;;5082830;28;20386;-69
2022/09/18 08:05:10;;;;;;;8.77;2.10;;;10.90;99.90;;;;;;5084247;28;20464;-65
2022/09/18 08:07:37;;;;;;;7.57;2.17;;;10.90;99.90;;;;;;5081569;28;20378;-67
2022/09/18 08:10:03;;;;;;;7.10;2.13;;;11.00;99.90;;;;;;5082015;28;20402;-65
2022/09/18 08:12:30;;;;;;;7.18;2.13;;;11.10;99.90;;;;;;5083273;28;20403;-64
2022/09/18 08:14:56;;;;;;;9.07;2.50;;;11.10;99.90;;;;;;5085661;28;20488;-65
2022/09/18 08:17:22;;;;;;;8.63;2.55;;;11.10;99.90;;;;;;5086286;28;20590;-65
2022/09/18 08:19:47;;;;;;;9.85;2.10;;;11.10;99.90;;;;;;5083386;28;20447;-65
2022/09/18 08:22:13;;;;;;;10.27;2.00;;;11.10;99.90;;;;;;5081759;28;20647;-65
2022/09/18 08:24:39;;;;;;;15.77;2.30;;;11.00;99.90;;;;;;5079285;28;20551;-65
2022/09/18 08:27:04;;;;;;;9.77;2.20;;;11.00;99.90;;;;;;5077792;28;20437;-65
2022/09/18 08:29:30;;;;;;;12.60;2.63;;;11.00;99.90;;;;;;5075666;28;20417;-65
2022/09/18 08:31:56;;;;;;;9.50;2.20;;;11.10;99.90;;;;;;5072768;28;20405;-65
2022/09/18 08:34:21;;;;;;;9.17;2.30;;;11.20;99.90;;;;;;5074775;28;20902;-65
2022/09/18 08:36:47;;;;;;;7.60;2.23;;;11.30;99.90;;;;;;5073562;28;20462;-65
2022/09/18 08:39:12;;;;;;;8.57;2.60;;;11.40;99.90;;;;;;5071892;28;20390;-65
2022/09/18 08:42:12;;;;;;;9.68;2.00;;;11.50;99.90;;;;;;5069600;28;20497;-65
2022/09/18 08:45:07;;;;;;;7.00;2.00;;;11.50;99.90;;;;;;5057198;28;20936;-65
2022/09/18 08:47:40;;;;;;;8.77;2.70;;;11.60;99.90;;;;;;5073121;28;20493;-65
2022/09/18 08:50:24;;;;;;;3.95;1.50;;;11.50;99.90;;;;;;5077185;28;20670;-65
2022/09/18 08:52:56;;;;;;;6.25;1.95;;;11.50;99.90;;;;;;5077276;28;20749;-65
2022/09/18 08:55:28;;;;;;;5.40;1.80;;;11.60;99.90;;;;;;5080467;28;20759;-65
2022/09/18 08:58:17;;;;;;;10.07;2.08;;;11.60;99.90;;;;;;5083045;28;20377;-65
2022/09/18 09:00:52;;;;;;;10.73;2.38;;;11.60;99.90;;;;;;5083354;28;20605;-66
2022/09/18 09:03:47;;;;;;;7.97;2.15;;;11.70;99.90;;;;;;5082949;28;20960;-65
2022/09/18 09:06:38;;;;;;;8.55;1.90;;;11.90;99.90;;;;;;5084831;28;20505;-66
2022/09/18 09:09:37;;;;;;;9.57;2.33;;;12.00;99.90;;;;;;5083784;28;20457;-66
2022/09/18 09:12:09;;;;;;;9.25;2.15;;;12.00;99.90;;;;;;5081222;28;20385;-65
2022/09/18 09:14:42;;;;;;;7.70;1.80;;;12.00;99.90;;;;;;5078819;28;20810;-65
2022/09/18 09:17:28;;;;;;;7.70;2.03;;;11.90;99.90;;;;;;5081111;28;20718;-65
2022/09/18 09:20:12;;;;;;;6.30;1.53;;;11.90;99.90;;;;;;5080942;28;20497;-66
2022/09/18 09:23:02;;;;;;;5.88;1.58;;;11.80;99.90;;;;;;5080296;28;20382;-66
2022/09/18 09:25:43;;;;;;;6.80;1.50;;;11.70;99.90;;;;;;5070857;28;20386;-66
2022/09/18 09:28:12;;;;;;;6.25;1.38;;;11.70;99.90;;;;;;5086262;28;20417;-65
2022/09/18 09:30:40;;;;;;;6.18;1.70;;;11.80;99.90;;;;;;5088947;28;20635;-65
2022/09/18 09:33:21;;;;;;;5.65;1.48;;;11.80;99.90;;;;;;5089303;28;20811;-65
2022/09/18 09:35:53;;;;;;;5.60;1.58;;;11.90;99.90;;;;;;5086904;28;20398;-65
2022/09/18 09:38:49;;;;;;;7.30;1.77;;;11.80;99.90;;;;;;5087065;28;20700;-65
2022/09/18 09:41:45;;;;;;;6.28;1.70;;;11.80;99.90;;;;;;5085665;28;20477;-65
2022/09/18 09:44:40;;;;;;;6.05;1.80;;;11.70;99.90;;;;;;5085388;28;20410;-65
2022/09/18 09:47:14;;;;;;;6.25;1.80;;;11.60;99.90;;;;;;5083937;28;20454;-65
2022/09/18 09:49:55;;;;;;;5.20;1.50;;;11.70;99.90;;;;;;5083418;28;20810;-66
2022/09/18 09:52:26;;;;;;;7.60;2.15;;;11.70;99.90;;;;;;5084224;28;20378;-66
2022/09/18 09:54:58;;;;;;;6.40;1.67;;;11.70;99.90;;;;;;5083061;28;20374;-67
2022/09/18 09:57:32;;;;;;;8.85;2.30;;;11.70;99.90;;;;;;5085671;28;20385;-66
2022/09/18 10:00:18;;;;;;;5.20;1.40;;;11.80;99.90;;;;;;5085222;28;20676;-66
2022/09/18 10:03:11;;;;;;;5.32;1.58;;;11.80;99.90;;;;;;5084540;28;20782;-66
2022/09/18 10:05:47;;;;;;;7.57;1.90;;;11.90;99.90;;;;;;5082750;28;20408;-66
2022/09/18 10:08:38;;;;;;;4.70;1.90;;;11.80;99.90;;;;;;5081840;28;20386;-66
2022/09/18 10:11:10;;;;;;;6.38;2.10;;;11.60;99.90;;;;;;5083481;28;20382;-66
2022/09/18 10:13:45;;;;;;;6.78;1.85;;;11.60;99.90;;;;;;5082006;28;20748;-66
2022/09/18 10:16:26;;;;;;;6.80;1.52;;;11.60;99.90;;;;;;5081042;28;20442;-66
2022/09/18 10:18:52;;;;;;;7.35;1.92;;;11.50;99.90;;;;;;5084586;28;20386;-65
2022/09/18 10:21:22;;;;;;;4.63;1.60;;;11.50;99.90;;;;;;5086446;28;20377;-66
2022/09/18 10:23:55;;;;;;;5.10;1.33;;;11.60;99.90;;;;;;5085959;28;21123;-66
2022/09/18 10:26:27;;;;;;;5.85;1.52;;;11.80;99.90;;;;;;5085617;28;20417;-66
2022/09/18 10:28:52;;;;;;;6.32;1.95;;;11.90;99.90;;;;;;5084866;28;20421;-66
2022/09/18 10:31:18;;;;;;;6.33;1.70;;;12.00;99.90;;;;;;5084876;28;20609;-67
2022/09/18 10:33:50;;;;;;;7.20;1.83;;;12.00;99.90;;;;;;5084652;28;20374;-65
2022/09/18 10:36:37;;;;;;;9.27;1.73;;;12.20;99.90;;;;;;5084882;28;20394;-65
2022/09/18 10:39:30;;;;;;;8.00;1.83;;;12.40;99.90;;;;;;5085017;28;20396;-66
2022/09/18 10:41:57;;;;;;;7.50;1.70;;;12.80;99.90;;;;;;5082599;28;21014;-66
2022/09/18 10:44:34;;;;;;;8.10;2.00;;;13.00;99.90;;;;;;5087115;28;20452;-66
2022/09/18 10:47:05;;;;;;;6.03;1.73;;;12.90;99.90;;;;;;5085136;28;20758;-59
2022/09/18 10:49:42;;;;;;;5.93;1.73;;;12.80;99.90;;;;;;5083534;28;20462;-58
2022/09/18 10:52:37;;;;;;;7.03;1.73;;;12.70;99.90;;;;;;5081958;28;20385;-59
2022/09/18 10:55:06;;;;;;;8.63;2.03;;;12.40;99.90;;;;;;5083159;28;20382;-60
2022/09/18 10:57:55;;;;;;;7.65;1.77;;;12.00;99.90;;;;;;5081346;28;20394;-60
2022/09/18 11:00:20;;;;;;;6.45;2.00;;;11.40;99.90;;;;;;5082212;28;20417;-61
2022/09/18 11:02:53;;;;;;;6.70;1.87;;;11.10;99.90;;;;;;5083895;28;20382;-59
2022/09/18 11:05:22;;;;;;;6.82;1.80;;;10.90;99.90;;;;;;5080929;28;20516;-60
2022/09/18 11:07:49;;;;;;;6.25;1.50;;;10.70;99.90;;;;;;5081345;28;20811;-60
2022/09/18 11:10:19;;;;;;;5.65;1.83;;;10.60;99.90;;;;;;5081039;28;20429;-59
2022/09/18 11:12:48;;;;;;;12.23;2.17;;;10.60;99.90;;;;;;5083006;28;20374;-60
2022/09/18 11:15:17;;;;;;;7.90;2.22;;;10.80;99.90;;;;;;5081980;28;20415;-65
2022/09/18 11:17:50;;;;;;;5.93;1.60;;;11.20;99.90;;;;;;5080938;28;20710;-65
2022/09/18 11:20:24;;;;;;;7.03;1.90;;;11.70;99.90;;;;;;5083473;28;20397;-65
2022/09/18 11:22:51;;;;;;;6.38;1.63;;;11.90;99.90;;;;;;5083601;28;20386;-66
2022/09/18 11:25:21;;;;;;;5.85;1.35;;;12.10;99.90;;;;;;5084250;28;20673;-64
2022/09/18 11:27:52;;;;;;;6.40;1.40;;;12.10;99.90;;;;;;5085332;28;20421;-65
2022/09/18 11:30:20;;;;;;;5.65;1.50;;;12.30;99.90;;;;;;5084782;28;20420;-65
2022/09/18 11:32:47;;;;;;;5.88;1.50;;;12.50;99.90;;;;;;5084503;28;20782;-65
2022/09/18 11:35:16;;;;;;;3.43;1.03;;;12.40;99.90;;;;;;5083537;28;20381;-65
2022/09/18 11:37:50;;;;;;;4.78;1.58;;;12.50;99.90;;;;;;5083526;28;20382;-65
2022/09/18 11:40:27;;;;;;;5.53;1.57;;;12.70;99.90;;;;;;5082238;28;20432;-65
2022/09/18 11:42:54;;;;;;;4.43;1.27;;;12.70;99.90;;;;;;5084822;28;20696;-66
2022/09/18 11:45:41;;;;;;;3.17;1.20;;;12.60;99.90;;;;;;5083330;28;20385;-65
2022/09/18 11:48:29;;;;;;;4.53;1.30;;;12.60;99.90;;;;;;5083364;28;20382;-65
2022/09/18 11:51:00;;;;;;;7.97;1.67;;;12.60;99.90;;;;;;5083784;28;21041;-66
2022/09/18 11:53:30;;;;;;;4.47;1.17;;;12.50;99.90;;;;;;5083400;28;20385;-66
2022/09/18 11:56:28;;;;;;;5.23;1.17;;;12.40;99.90;;;;;;5083167;28;20527;-66
2022/09/18 11:59:06;;;;;;;7.00;1.60;;;12.40;99.90;;;;;;5084620;28;20397;-65
2022/09/18 12:01:37;;;;;;;8.05;1.63;;;12.40;99.90;;;;;;5085184;28;20401;-65
2022/09/18 12:04:23;;;;;;;5.35;1.48;;;12.30;99.90;;;;;;5084655;28;20439;-66
2022/09/18 12:06:55;;;;;;;7.20;1.45;;;12.10;99.90;;;;;;5085432;28;20693;-66
2022/09/18 12:09:39;;;;;;;9.63;1.80;;;12.10;99.90;;;;;;5086711;28;20413;-66
2022/09/18 12:12:21;;;;;;;6.25;1.75;;;12.00;99.90;;;;;;5087125;28;20535;-66
2022/09/18 12:15:12;;;;;;;6.63;2.00;;;11.90;99.90;;;;;;5085093;28;20808;-66
2022/09/18 12:17:51;;;;;;;6.88;1.70;;;12.00;99.90;;;;;;5084411;28;20393;-66
2022/09/18 12:20:48;;;;;;;6.60;1.70;;;12.00;99.90;;;;;;5086330;28;20895;-66
2022/09/18 12:23:19;;;;;;;5.70;1.67;;;12.40;99.90;;;;;;5068181;28;20370;-66
2022/09/18 12:25:58;;;;;;;6.68;1.75;;;12.80;99.90;;;;;;5084060;28;20382;-66
2022/09/18 12:29:01;;;;;;;8.43;1.70;;;13.20;99.90;;;;;;5082787;28;20452;-66
2022/09/18 12:31:41;;;;;;;7.55;1.63;;;13.70;99.90;;;;;;5083954;28;20424;-65
2022/09/18 12:34:16;;;;;;;5.97;1.60;;;14.00;99.90;;;;;;5085491;28;20386;-66
2022/09/18 12:36:52;;;;;;;7.65;1.98;;;14.20;99.90;;;;;;5085016;28;20701;-66
2022/09/18 12:39:44;;;;;;;6.30;1.60;;;14.30;99.90;;;;;;5086650;28;20495;-66
2022/09/18 12:42:38;;;;;;;6.40;2.47;;;13.90;99.90;;;;;;5054848;28;20498;-66
2022/09/18 12:45:22;;;;;;;7.30;1.95;;;13.50;99.90;;;;;;5050306;28;20709;-66
2022/09/18 12:48:18;;;;;;;7.45;2.10;;;13.30;99.90;;;;;;5087128;28;20439;-66
2022/09/18 12:51:11;;;;;;;5.82;1.83;;;13.20;99.90;;;;;;5086762;28;20409;-66
2022/09/18 12:54:13;;;;;;;5.03;1.65;;;13.20;99.90;;;;;;5087923;28;20681;-66
2022/09/18 12:56:49;;;;;;;5.85;1.70;;;13.30;99.90;;;;;;5086551;28;20386;-66
2022/09/18 12:59:29;;;;;;;7.75;1.92;;;13.20;99.90;;;;;;5087480;28;20390;-66
2022/09/18 13:02:03;;;;;;;5.93;1.77;;;13.20;99.90;;;;;;5090262;28;20378;-66
2022/09/18 13:04:37;;;;;;;4.55;1.38;;;13.20;99.90;;;;;;5092434;28;20431;-66
2022/09/18 13:07:27;;;;;;;3.80;1.20;;;13.10;99.90;;;;;;5093133;28;20770;-66
2022/09/18 13:10:02;;;;;;;6.18;1.42;;;13.10;99.90;;;;;;5093923;28;20434;-66